createdAt,value
2016-09-05T00:00:09.704Z,0
2016-09-05T00:01:09.398Z,0
2016-09-05T00:02:09.543Z,0
2016-09-05T00:03:09.598Z,0
2016-09-05T00:04:09.682Z,0
2016-09-05T00:05:09.607Z,0
2016-09-05T00:06:09.616Z,0
2016-09-05T00:07:09.634Z,0
2016-09-05T00:08:09.706Z,0
2016-09-05T00:09:09.526Z,0
2016-09-05T00:10:09.452Z,0
2016-09-05T00:11:09.498Z,0
2016-09-05T00:12:09.600Z,0
2016-09-05T00:13:09.530Z,0
2016-09-05T00:14:09.578Z,0
2016-09-05T00:15:09.585Z,0
2016-09-05T00:16:14.889Z,0
2016-09-05T00:17:31.307Z,0
2016-09-05T00:18:33.799Z,0
2016-09-05T00:19:19.725Z,0
2016-09-05T00:20:09.215Z,0
2016-09-05T00:21:11.220Z,0
2016-09-05T00:22:09.723Z,0
2016-09-05T00:23:09.179Z,0
2016-09-05T00:24:09.118Z,0
2016-09-05T00:25:09.115Z,0
2016-09-05T00:26:09.212Z,0
2016-09-05T00:27:09.133Z,0
2016-09-05T00:28:09.153Z,0
2016-09-05T00:29:09.321Z,0
2016-09-05T00:30:09.117Z,0
2016-09-05T00:31:09.204Z,0
2016-09-05T00:32:09.732Z,0
2016-09-05T00:33:09.700Z,0
2016-09-05T00:34:09.744Z,0
2016-09-05T00:35:09.700Z,0
2016-09-05T00:36:09.722Z,0
2016-09-05T00:37:09.529Z,0
2016-09-05T00:38:09.800Z,0
2016-09-05T00:39:09.840Z,0
2016-09-05T00:40:09.599Z,0
2016-09-05T00:41:09.586Z,0
2016-09-05T00:42:09.669Z,0
2016-09-05T00:43:09.707Z,0
2016-09-05T00:44:10.002Z,0
2016-09-05T00:45:18.923Z,0
2016-09-05T00:46:17.429Z,0
2016-09-05T00:47:22.135Z,0
2016-09-05T00:48:21.955Z,0
2016-09-05T00:49:23.224Z,0
2016-09-05T00:50:23.062Z,0
2016-09-05T00:51:17.399Z,0
2016-09-05T00:52:09.570Z,0
2016-09-05T00:53:12.576Z,0
2016-09-05T00:54:09.725Z,0
2016-09-05T00:55:09.727Z,0
2016-09-05T00:56:09.786Z,0
2016-09-05T00:57:09.869Z,0
2016-09-05T00:58:09.699Z,0
2016-09-05T00:59:09.557Z,0
2016-09-05T01:00:09.629Z,0
2016-09-05T01:01:09.640Z,0
2016-09-05T01:02:09.618Z,0
2016-09-05T01:03:09.572Z,0
2016-09-05T01:04:09.885Z,0
2016-09-05T01:05:09.595Z,0
2016-09-05T01:06:09.735Z,0
2016-09-05T01:07:09.780Z,0
2016-09-05T01:08:09.480Z,0
2016-09-05T01:09:09.631Z,0
2016-09-05T01:10:09.617Z,0
2016-09-05T01:11:09.810Z,0
2016-09-05T01:12:09.625Z,0
2016-09-05T01:13:09.567Z,0
2016-09-05T01:14:09.433Z,0
2016-09-05T01:15:09.581Z,0
2016-09-05T01:16:09.634Z,0
2016-09-05T01:17:09.480Z,0
2016-09-05T01:18:10.259Z,0
2016-09-05T01:19:09.597Z,0
2016-09-05T01:20:09.547Z,0
2016-09-05T01:21:09.726Z,0
2016-09-05T01:22:09.874Z,0
2016-09-05T01:23:09.633Z,0
2016-09-05T01:24:09.650Z,0
2016-09-05T01:25:09.763Z,0
2016-09-05T01:26:09.814Z,0
2016-09-05T01:27:12.714Z,0
2016-09-05T01:28:09.587Z,0
2016-09-05T01:29:09.678Z,0
2016-09-05T01:30:09.412Z,0
2016-09-05T01:31:09.352Z,0
2016-09-05T01:32:09.542Z,0
2016-09-05T01:33:09.607Z,0
2016-09-05T01:34:09.513Z,0
2016-09-05T01:35:09.552Z,0
2016-09-05T01:36:09.907Z,0
2016-09-05T01:37:12.783Z,0
2016-09-05T01:38:09.604Z,0
2016-09-05T01:39:09.533Z,0
2016-09-05T01:40:09.593Z,0
2016-09-05T01:41:09.625Z,0
2016-09-05T01:42:09.288Z,0
2016-09-05T01:43:09.581Z,0
2016-09-05T01:44:09.406Z,0
2016-09-05T01:45:09.412Z,0
2016-09-05T01:46:09.454Z,0
2016-09-05T01:47:09.274Z,0
2016-09-05T01:48:09.283Z,0
2016-09-05T01:49:09.215Z,0
2016-09-05T01:50:09.228Z,0
2016-09-05T01:51:09.289Z,0
2016-09-05T01:52:09.231Z,0
2016-09-05T01:53:09.217Z,0
2016-09-05T01:54:09.218Z,0
2016-09-05T01:55:09.257Z,0
2016-09-05T01:56:09.231Z,0
2016-09-05T01:57:09.248Z,0
2016-09-05T01:58:09.259Z,0
2016-09-05T01:59:09.262Z,0
2016-09-05T02:00:09.242Z,0
2016-09-05T02:01:09.309Z,0
2016-09-05T02:02:09.220Z,0
2016-09-05T02:03:09.246Z,0
2016-09-05T02:04:09.264Z,0
2016-09-05T02:05:09.259Z,0
2016-09-05T02:06:09.258Z,0
2016-09-05T02:07:09.273Z,0
2016-09-05T02:08:09.324Z,0
2016-09-05T02:09:09.227Z,0
2016-09-05T02:10:09.284Z,0
2016-09-05T02:11:09.245Z,0
2016-09-05T02:12:09.215Z,0
2016-09-05T02:13:09.252Z,0
2016-09-05T02:14:09.563Z,0
2016-09-05T02:15:09.618Z,0
2016-09-05T02:16:09.628Z,0
2016-09-05T02:17:09.762Z,0
2016-09-05T02:18:09.676Z,0
2016-09-05T02:19:09.653Z,0
2016-09-05T02:20:09.538Z,0
2016-09-05T02:21:09.846Z,0
2016-09-05T02:22:09.546Z,0
2016-09-05T02:23:09.664Z,0
2016-09-05T02:24:09.569Z,0
2016-09-05T02:25:09.524Z,0
2016-09-05T02:26:09.443Z,0
2016-09-05T02:27:09.518Z,0
2016-09-05T02:28:09.508Z,0
2016-09-05T02:29:09.562Z,0
2016-09-05T02:30:09.401Z,0
2016-09-05T02:31:09.382Z,0
2016-09-05T02:32:09.599Z,0
2016-09-05T02:33:09.406Z,0
2016-09-05T02:34:16.092Z,0
2016-09-05T02:35:27.823Z,0
2016-09-05T02:36:22.448Z,0
2016-09-05T02:38:01.538Z,0
2016-09-05T02:38:34.874Z,0
2016-09-05T02:39:41.639Z,0
2016-09-05T02:40:49.018Z,0
2016-09-05T02:41:48.651Z,0
2016-09-05T02:43:04.502Z,0
2016-09-05T02:44:04.412Z,0
2016-09-05T02:45:18.957Z,0
2016-09-05T02:46:27.406Z,0
2016-09-05T02:48:35.198Z,0
2016-09-05T02:49:02.402Z,0
2016-09-05T02:50:12.732Z,0
2016-09-05T02:51:07.187Z,0
2016-09-05T02:53:04.265Z,0
2016-09-05T02:53:39.176Z,0
2016-09-05T02:54:44.884Z,0
2016-09-05T02:55:38.203Z,0
2016-09-05T02:56:38.078Z,0
2016-09-05T02:57:41.185Z,0
2016-09-05T02:58:40.325Z,0
2016-09-05T02:59:28.933Z,0
2016-09-05T03:01:24.504Z,0
2016-09-05T03:02:11.129Z,0
2016-09-05T03:03:15.663Z,0
2016-09-05T03:05:03.080Z,0
2016-09-05T03:05:40.842Z,0
2016-09-05T03:06:32.959Z,0
2016-09-05T03:07:51.260Z,0
2016-09-05T03:08:34.614Z,0
2016-09-05T03:10:06.285Z,0
2016-09-05T03:10:27.252Z,0
2016-09-05T03:11:29.964Z,0
2016-09-05T03:12:32.382Z,0
2016-09-05T03:13:53.264Z,0
2016-09-05T03:14:54.915Z,0
2016-09-05T03:16:09.244Z,0
2016-09-05T03:16:31.605Z,0
2016-09-05T03:17:31.569Z,0
2016-09-05T03:18:31.538Z,0
2016-09-05T03:19:31.629Z,0
2016-09-05T03:20:31.560Z,0
2016-09-05T03:21:31.553Z,0
2016-09-05T03:22:31.610Z,0
2016-09-05T03:23:31.539Z,0
2016-09-05T03:24:31.599Z,0
2016-09-05T03:25:31.539Z,0
2016-09-05T03:26:31.559Z,0
2016-09-05T03:27:31.567Z,0
2016-09-05T03:28:31.599Z,0
2016-09-05T03:29:31.583Z,0
2016-09-05T03:30:31.571Z,0
2016-09-05T03:31:31.565Z,0
2016-09-05T03:32:31.537Z,0
2016-09-05T03:33:31.558Z,0
2016-09-05T03:34:31.543Z,0
2016-09-05T03:35:31.600Z,0
2016-09-05T03:36:31.574Z,0
2016-09-05T03:37:31.556Z,0
2016-09-05T03:38:31.576Z,0
2016-09-05T03:39:31.544Z,0
2016-09-05T03:40:31.573Z,0
2016-09-05T03:41:31.596Z,0
2016-09-05T03:42:31.727Z,0
2016-09-05T03:43:31.571Z,0
2016-09-05T03:44:31.590Z,0
2016-09-05T03:45:31.592Z,0
2016-09-05T03:46:31.572Z,0
2016-09-05T03:47:31.576Z,0
2016-09-05T03:48:31.552Z,0
2016-09-05T03:49:31.573Z,0
2016-09-05T03:50:31.569Z,0
2016-09-05T03:51:31.617Z,0
2016-09-05T03:52:31.621Z,0
2016-09-05T03:53:31.548Z,0
2016-09-05T03:54:31.583Z,0
2016-09-05T03:55:31.570Z,0
2016-09-05T03:56:31.582Z,0
2016-09-05T03:57:31.557Z,0
2016-09-05T03:58:31.574Z,0
2016-09-05T03:59:31.598Z,0
2016-09-05T04:00:31.585Z,0
2016-09-05T04:01:31.580Z,0
2016-09-05T04:02:31.604Z,0
2016-09-05T04:03:31.666Z,0
2016-09-05T04:04:31.619Z,0
2016-09-05T04:05:31.587Z,0
2016-09-05T04:06:31.561Z,0
2016-09-05T04:07:31.652Z,0
2016-09-05T04:08:31.632Z,0
2016-09-05T04:09:31.625Z,0
2016-09-05T04:10:31.618Z,0
2016-09-05T04:11:31.602Z,0
2016-09-05T04:12:31.633Z,0
2016-09-05T04:13:31.591Z,0
2016-09-05T04:14:31.615Z,0
2016-09-05T04:15:33.405Z,0
2016-09-05T04:16:35.149Z,0
2016-09-05T04:17:57.552Z,0
2016-09-05T04:18:40.188Z,0
2016-09-05T04:20:10.606Z,0
2016-09-05T04:20:43.308Z,0
2016-09-05T04:21:50.461Z,0
2016-09-05T04:22:37.275Z,0
2016-09-05T04:23:39.149Z,0
2016-09-05T04:24:45.359Z,0
2016-09-05T04:25:43.801Z,0
2016-09-05T04:26:41.838Z,0
2016-09-05T04:28:01.120Z,0
2016-09-05T04:28:38.519Z,0
2016-09-05T04:29:37.812Z,0
2016-09-05T04:30:41.403Z,0
2016-09-05T04:31:40.480Z,0
2016-09-05T04:32:46.735Z,0
2016-09-05T04:34:03.428Z,0
2016-09-05T04:34:38.531Z,0
2016-09-05T04:35:48.231Z,0
2016-09-05T04:36:52.771Z,0
2016-09-05T04:37:59.101Z,0
2016-09-05T04:38:47.165Z,0
2016-09-05T04:39:31.652Z,0
2016-09-05T04:40:31.586Z,0
2016-09-05T04:41:31.620Z,0
2016-09-05T04:42:31.659Z,0
2016-09-05T04:43:31.694Z,0
2016-09-05T04:44:31.704Z,0
2016-09-05T04:45:31.618Z,0
2016-09-05T04:46:31.631Z,0
2016-09-05T04:47:31.618Z,0
2016-09-05T04:48:31.634Z,5
2016-09-05T04:49:31.731Z,5
2016-09-05T04:50:31.637Z,5
2016-09-05T04:51:31.683Z,5
2016-09-05T04:52:31.636Z,5
2016-09-05T04:53:31.699Z,5
2016-09-05T04:54:31.648Z,5
2016-09-05T04:55:31.653Z,5
2016-09-05T04:56:31.604Z,5
2016-09-05T04:57:31.666Z,5
2016-09-05T04:58:31.679Z,5
2016-09-05T04:59:31.591Z,5
2016-09-05T05:00:31.647Z,5
2016-09-05T05:01:31.670Z,5
2016-09-05T05:02:31.708Z,5
2016-09-05T05:03:31.651Z,5
2016-09-05T05:04:31.627Z,5
2016-09-05T05:05:31.681Z,10
2016-09-05T05:06:31.716Z,10
2016-09-05T05:07:31.670Z,10
2016-09-05T05:08:31.664Z,10
2016-09-05T05:09:31.684Z,10
2016-09-05T05:10:31.696Z,10
2016-09-05T05:11:31.641Z,15
2016-09-05T05:12:31.646Z,15
2016-09-05T05:13:31.635Z,20
2016-09-05T05:14:31.674Z,20
2016-09-05T05:15:31.647Z,20
2016-09-05T05:16:31.701Z,20
2016-09-05T05:17:31.694Z,20
2016-09-05T05:18:31.657Z,20
2016-09-05T05:19:31.619Z,20
2016-09-05T05:20:31.644Z,25
2016-09-05T05:21:31.665Z,25
2016-09-05T05:22:31.696Z,30
2016-09-05T05:23:31.663Z,30
2016-09-05T05:24:31.636Z,35
2016-09-05T05:25:31.654Z,40
2016-09-05T05:26:31.711Z,40
2016-09-05T05:27:31.664Z,35
2016-09-05T05:28:31.667Z,35
2016-09-05T05:29:31.709Z,40
2016-09-05T05:30:31.638Z,40
2016-09-05T05:31:31.673Z,40
2016-09-05T05:32:31.680Z,40
2016-09-05T05:33:31.670Z,45
2016-09-05T05:34:31.676Z,50
2016-09-05T05:35:31.642Z,45
2016-09-05T05:36:31.689Z,50
2016-09-05T05:37:31.642Z,50
2016-09-05T05:38:31.667Z,45
2016-09-05T05:39:31.655Z,45
2016-09-05T05:40:31.697Z,55
2016-09-05T05:41:31.685Z,60
2016-09-05T05:42:31.778Z,65
2016-09-05T05:43:31.728Z,70
2016-09-05T05:44:31.671Z,70
2016-09-05T05:45:31.682Z,70
2016-09-05T05:46:31.684Z,70
2016-09-05T05:47:31.681Z,80
2016-09-05T05:48:31.682Z,90
2016-09-05T05:49:31.663Z,100
2016-09-05T05:50:31.703Z,100
2016-09-05T05:51:31.730Z,95
2016-09-05T05:52:31.679Z,90
2016-09-05T05:53:31.686Z,100
2016-09-05T05:54:31.667Z,125
2016-09-05T05:55:31.715Z,110
2016-09-05T05:56:31.710Z,90
2016-09-05T05:57:31.731Z,75
2016-09-05T05:58:31.772Z,85
2016-09-05T05:59:31.692Z,85
2016-09-05T06:00:31.703Z,90
2016-09-05T06:01:31.701Z,90
2016-09-05T06:02:31.673Z,105
2016-09-05T06:03:31.652Z,125
2016-09-05T06:04:31.677Z,135
2016-09-05T06:05:31.665Z,105
2016-09-05T06:06:31.706Z,110
2016-09-05T06:07:31.697Z,145
2016-09-05T06:08:31.730Z,115
2016-09-05T06:09:31.687Z,115
2016-09-05T06:10:31.668Z,100
2016-09-05T06:11:31.658Z,120
2016-09-05T06:12:31.686Z,140
2016-09-05T06:13:31.692Z,135
2016-09-05T06:14:31.670Z,110
2016-09-05T06:15:31.669Z,145
2016-09-05T06:16:31.690Z,130
2016-09-05T06:17:31.695Z,130
2016-09-05T06:18:31.704Z,110
2016-09-05T06:19:31.715Z,120
2016-09-05T06:20:31.747Z,120
2016-09-05T06:21:31.711Z,105
2016-09-05T06:22:31.735Z,95
2016-09-05T06:23:31.747Z,115
2016-09-05T06:24:31.702Z,140
2016-09-05T06:25:31.702Z,140
2016-09-05T06:26:31.684Z,150
2016-09-05T06:27:31.715Z,155
2016-09-05T06:28:31.698Z,140
2016-09-05T06:29:31.699Z,150
2016-09-05T06:30:31.759Z,155
2016-09-05T06:31:31.734Z,155
2016-09-05T06:32:31.717Z,195
2016-09-05T06:33:31.748Z,190
2016-09-05T06:34:31.699Z,195
2016-09-05T06:35:31.726Z,170
2016-09-05T06:36:31.717Z,175
2016-09-05T06:37:31.718Z,185
2016-09-05T06:38:31.745Z,155
2016-09-05T06:39:31.730Z,135
2016-09-05T06:40:31.735Z,135
2016-09-05T06:41:31.773Z,150
2016-09-05T06:42:31.826Z,140
2016-09-05T06:43:31.732Z,170
2016-09-05T06:44:31.752Z,135
2016-09-05T06:45:31.791Z,155
2016-09-05T06:46:31.727Z,125
2016-09-05T06:47:31.759Z,125
2016-09-05T06:48:31.737Z,130
2016-09-05T06:49:31.769Z,125
2016-09-05T06:50:31.810Z,125
2016-09-05T06:51:31.811Z,130
2016-09-05T06:52:31.787Z,130
2016-09-05T06:53:31.764Z,135
2016-09-05T06:54:31.781Z,135
2016-09-05T06:55:31.732Z,125
2016-09-05T06:56:31.802Z,130
2016-09-05T06:57:31.769Z,145
2016-09-05T06:58:31.731Z,170
2016-09-05T06:59:31.713Z,210
2016-09-05T07:00:31.808Z,245
2016-09-05T07:01:31.771Z,265
2016-09-05T07:02:31.730Z,280
2016-09-05T07:03:31.751Z,285
2016-09-05T07:04:31.727Z,260
2016-09-05T07:05:31.768Z,270
2016-09-05T07:06:31.818Z,245
2016-09-05T07:07:31.791Z,195
2016-09-05T07:08:31.744Z,160
2016-09-05T07:09:31.796Z,155
2016-09-05T07:10:31.733Z,125
2016-09-05T07:11:31.774Z,125
2016-09-05T07:12:31.763Z,155
2016-09-05T07:13:31.780Z,210
2016-09-05T07:14:31.791Z,255
2016-09-05T07:15:31.813Z,265
2016-09-05T07:16:31.788Z,230
2016-09-05T07:17:31.765Z,210
2016-09-05T07:18:31.790Z,210
2016-09-05T07:19:31.793Z,220
2016-09-05T07:20:31.773Z,220
2016-09-05T07:21:31.765Z,230
2016-09-05T07:22:31.821Z,240
2016-09-05T07:23:31.791Z,220
2016-09-05T07:24:31.921Z,190
2016-09-05T07:25:31.752Z,225
2016-09-05T07:26:31.813Z,220
2016-09-05T07:27:52.453Z,240
2016-09-05T07:28:48.472Z,260
2016-09-05T07:29:38.274Z,280
2016-09-05T07:30:41.593Z,305
2016-09-05T07:31:50.645Z,220
2016-09-05T07:33:32.460Z,160
2016-09-05T07:34:57.145Z,180
2016-09-05T07:36:14.491Z,155
2016-09-05T07:36:25.601Z,150
2016-09-05T07:38:05.073Z,205
2016-09-05T07:39:08.802Z,230
2016-09-05T07:39:58.462Z,235
2016-09-05T07:40:50.983Z,300
2016-09-05T07:41:27.961Z,275
2016-09-05T07:42:27.253Z,235
2016-09-05T07:43:27.232Z,265
2016-09-05T07:44:27.216Z,330
2016-09-05T07:45:27.245Z,255
2016-09-05T07:46:27.224Z,255
2016-09-05T07:47:27.888Z,240
2016-09-05T07:48:27.281Z,225
2016-09-05T07:49:27.190Z,245
2016-09-05T07:50:27.250Z,235
2016-09-05T07:51:27.316Z,215
2016-09-05T07:52:27.221Z,230
2016-09-05T07:53:27.261Z,305
2016-09-05T07:54:27.248Z,350
2016-09-05T07:55:27.238Z,235
2016-09-05T07:56:27.248Z,200
2016-09-05T07:57:27.278Z,230
2016-09-05T07:58:27.229Z,230
2016-09-05T07:59:27.281Z,245
2016-09-05T08:00:27.284Z,300
2016-09-05T08:01:27.264Z,285
2016-09-05T08:02:27.243Z,265
2016-09-05T08:03:27.234Z,255
2016-09-05T08:04:27.270Z,225
2016-09-05T08:05:27.249Z,225
2016-09-05T08:06:27.251Z,225
2016-09-05T08:07:27.872Z,250
2016-09-05T08:08:27.252Z,265
2016-09-05T08:09:27.265Z,240
2016-09-05T08:10:27.265Z,215
2016-09-05T08:11:27.234Z,215
2016-09-05T08:12:27.313Z,210
2016-09-05T08:13:27.354Z,190
2016-09-05T08:14:27.268Z,150
2016-09-05T08:15:27.312Z,170
2016-09-05T08:16:27.525Z,190
2016-09-05T08:17:27.369Z,205
2016-09-05T08:18:27.387Z,220
2016-09-05T08:19:27.389Z,240
2016-09-05T08:20:27.266Z,275
2016-09-05T08:21:27.348Z,320
2016-09-05T08:22:27.595Z,355
2016-09-05T08:23:27.445Z,350
2016-09-05T08:24:27.413Z,340
2016-09-05T08:25:27.312Z,365
2016-09-05T08:26:27.858Z,405
2016-09-05T08:27:27.940Z,425
2016-09-05T08:28:27.817Z,390
2016-09-05T08:29:27.791Z,375
2016-09-05T08:30:28.044Z,355
2016-09-05T08:31:27.929Z,360
2016-09-05T08:32:27.836Z,380
2016-09-05T08:33:27.910Z,375
2016-09-05T08:34:27.671Z,375
2016-09-05T08:35:27.926Z,365
2016-09-05T08:36:27.703Z,360
2016-09-05T08:37:27.604Z,345
2016-09-05T08:38:27.679Z,340
2016-09-05T08:39:27.569Z,340
2016-09-05T08:40:27.986Z,340
2016-09-05T08:41:28.108Z,325
2016-09-05T08:42:27.966Z,300
2016-09-05T08:43:27.605Z,285
2016-09-05T08:44:27.754Z,250
2016-09-05T08:45:27.760Z,240
2016-09-05T08:46:30.199Z,215
2016-09-05T08:47:28.197Z,245
2016-09-05T08:48:31.553Z,290
2016-09-05T08:49:28.535Z,290
2016-09-05T08:50:31.913Z,280
2016-09-05T08:51:30.878Z,295
2016-09-05T08:52:30.688Z,275
2016-09-05T08:53:27.887Z,240
2016-09-05T08:54:27.629Z,230
2016-09-05T08:55:27.665Z,240
2016-09-05T08:56:27.713Z,245
2016-09-05T08:57:27.698Z,210
2016-09-05T08:58:27.761Z,220
2016-09-05T08:59:27.630Z,245
2016-09-05T09:00:30.307Z,285
2016-09-05T09:01:27.823Z,300
2016-09-05T09:02:28.259Z,310
2016-09-05T09:03:27.705Z,305
2016-09-05T09:04:28.042Z,300
2016-09-05T09:05:27.945Z,275
2016-09-05T09:06:28.141Z,240
2016-09-05T09:07:27.957Z,280
2016-09-05T09:08:27.636Z,315
2016-09-05T09:09:27.630Z,300
2016-09-05T09:10:27.501Z,260
2016-09-05T09:11:27.682Z,220
2016-09-05T09:12:27.657Z,180
2016-09-05T09:13:27.718Z,160
2016-09-05T09:14:28.428Z,140
2016-09-05T09:15:27.514Z,140
2016-09-05T09:16:28.124Z,135
2016-09-05T09:17:27.462Z,135
2016-09-05T09:18:30.302Z,140
2016-09-05T09:19:31.233Z,160
2016-09-05T09:20:28.522Z,180
2016-09-05T09:21:30.843Z,190
2016-09-05T09:22:47.745Z,225
2016-09-05T09:23:43.874Z,245
2016-09-05T09:24:36.008Z,215
2016-09-05T09:25:31.150Z,235
2016-09-05T09:26:27.382Z,255
2016-09-05T09:27:27.611Z,240
2016-09-05T09:28:28.128Z,235
2016-09-05T09:29:27.605Z,210
2016-09-05T09:30:27.323Z,200
2016-09-05T09:31:27.682Z,250
2016-09-05T09:32:27.518Z,260
2016-09-05T09:33:27.505Z,310
2016-09-05T09:34:27.347Z,385
2016-09-05T09:35:27.603Z,310
2016-09-05T09:36:27.512Z,245
2016-09-05T09:37:27.547Z,250
2016-09-05T09:38:27.519Z,295
2016-09-05T09:39:27.408Z,280
2016-09-05T09:40:27.724Z,270
2016-09-05T09:41:27.580Z,310
2016-09-05T09:42:27.375Z,310
2016-09-05T09:43:27.512Z,255
2016-09-05T09:44:27.399Z,215
2016-09-05T09:45:27.643Z,225
2016-09-05T09:46:27.376Z,280
2016-09-05T09:47:27.530Z,330
2016-09-05T09:48:27.530Z,315
2016-09-05T09:49:27.364Z,270
2016-09-05T09:50:27.364Z,225
2016-09-05T09:51:28.319Z,205
2016-09-05T09:52:28.177Z,215
2016-09-05T09:53:27.695Z,255
2016-09-05T09:54:27.491Z,285
2016-09-05T09:55:27.690Z,305
2016-09-05T09:56:27.905Z,310
2016-09-05T09:57:27.448Z,315
2016-09-05T09:58:30.368Z,340
2016-09-05T09:59:27.644Z,330
2016-09-05T10:00:27.399Z,305
2016-09-05T10:01:27.475Z,300
2016-09-05T10:02:27.545Z,310
2016-09-05T10:03:27.346Z,285
2016-09-05T10:04:27.391Z,295
2016-09-05T10:05:27.531Z,295
2016-09-05T10:06:28.196Z,275
2016-09-05T10:07:27.559Z,300
2016-09-05T10:08:27.650Z,310
2016-09-05T10:09:27.387Z,340
2016-09-05T10:10:29.016Z,325
2016-09-05T10:11:27.574Z,285
2016-09-05T10:12:28.931Z,245
2016-09-05T10:13:27.504Z,255
2016-09-05T10:14:27.437Z,255
2016-09-05T10:15:27.623Z,240
2016-09-05T10:16:27.392Z,230
2016-09-05T10:17:27.495Z,240
2016-09-05T10:18:27.419Z,265
2016-09-05T10:19:27.542Z,295
2016-09-05T10:20:27.601Z,315
2016-09-05T10:21:27.552Z,340
2016-09-05T10:22:27.431Z,365
2016-09-05T10:23:27.454Z,385
2016-09-05T10:24:27.408Z,395
2016-09-05T10:25:27.753Z,385
2016-09-05T10:26:27.502Z,360
2016-09-05T10:27:27.505Z,345
2016-09-05T10:28:27.380Z,355
2016-09-05T10:29:27.468Z,335
2016-09-05T10:30:27.445Z,310
2016-09-05T10:31:27.468Z,300
2016-09-05T10:32:27.390Z,285
2016-09-05T10:33:27.414Z,255
2016-09-05T10:34:27.401Z,250
2016-09-05T10:35:27.424Z,240
2016-09-05T10:36:27.412Z,230
2016-09-05T10:37:27.455Z,220
2016-09-05T10:38:27.437Z,210
2016-09-05T10:39:27.528Z,225
2016-09-05T10:40:27.512Z,240
2016-09-05T10:41:27.520Z,265
2016-09-05T10:42:27.408Z,260
2016-09-05T10:43:27.421Z,310
2016-09-05T10:44:27.421Z,320
2016-09-05T10:45:27.485Z,345
2016-09-05T10:46:27.460Z,385
2016-09-05T10:47:27.409Z,370
2016-09-05T10:48:27.435Z,375
2016-09-05T10:49:27.437Z,370
2016-09-05T10:50:27.546Z,330
2016-09-05T10:51:27.604Z,300
2016-09-05T10:52:27.444Z,285
2016-09-05T10:53:27.412Z,260
2016-09-05T10:54:27.493Z,220
2016-09-05T10:55:27.410Z,230
2016-09-05T10:56:27.425Z,230
2016-09-05T10:57:27.447Z,240
2016-09-05T10:58:27.446Z,255
2016-09-05T10:59:27.409Z,270
2016-09-05T11:00:27.517Z,275
2016-09-05T11:01:27.488Z,270
2016-09-05T11:02:27.454Z,265
2016-09-05T11:03:27.491Z,270
2016-09-05T11:04:27.498Z,275
2016-09-05T11:05:27.478Z,275
2016-09-05T11:06:27.482Z,290
2016-09-05T11:07:27.475Z,335
2016-09-05T11:08:27.430Z,335
2016-09-05T11:09:27.416Z,330
2016-09-05T11:10:27.452Z,340
2016-09-05T11:11:27.432Z,350
2016-09-05T11:12:27.487Z,330
2016-09-05T11:13:27.431Z,320
2016-09-05T11:14:27.653Z,310
2016-09-05T11:15:27.519Z,305
2016-09-05T11:16:27.514Z,290
2016-09-05T11:17:27.483Z,300
2016-09-05T11:18:27.430Z,310
2016-09-05T11:19:27.526Z,335
2016-09-05T11:20:27.441Z,355
2016-09-05T11:21:27.537Z,365
2016-09-05T11:22:27.452Z,365
2016-09-05T11:23:27.519Z,360
2016-09-05T11:24:27.486Z,385
2016-09-05T11:25:27.638Z,395
2016-09-05T11:26:27.489Z,365
2016-09-05T11:27:27.491Z,345
2016-09-05T11:28:27.461Z,310
2016-09-05T11:29:27.560Z,275
2016-09-05T11:30:27.480Z,250
2016-09-05T11:31:27.484Z,240
2016-09-05T11:32:27.532Z,230
2016-09-05T11:33:27.485Z,220
2016-09-05T11:34:27.532Z,215
2016-09-05T11:35:27.471Z,205
2016-09-05T11:36:27.524Z,205
2016-09-05T11:37:27.476Z,200
2016-09-05T11:38:27.475Z,200
2016-09-05T11:39:27.472Z,200
2016-09-05T11:40:27.653Z,200
2016-09-05T11:41:27.609Z,210
2016-09-05T11:42:27.477Z,205
2016-09-05T11:43:27.488Z,205
2016-09-05T11:44:29.181Z,205
2016-09-05T11:45:27.485Z,205
2016-09-05T11:46:27.589Z,210
2016-09-05T11:47:27.470Z,235
2016-09-05T11:48:27.713Z,245
2016-09-05T11:49:27.642Z,265
2016-09-05T11:50:27.561Z,285
2016-09-05T11:51:27.698Z,300
2016-09-05T11:52:27.492Z,345
2016-09-05T11:53:27.537Z,370
2016-09-05T11:54:27.618Z,380
2016-09-05T11:55:27.610Z,375
2016-09-05T11:56:27.654Z,380
2016-09-05T11:57:27.620Z,375
2016-09-05T11:58:27.613Z,355
2016-09-05T11:59:27.493Z,335
2016-09-05T12:00:27.669Z,320
2016-09-05T12:01:27.730Z,305
2016-09-05T12:02:27.614Z,315
2016-09-05T12:03:27.661Z,335
2016-09-05T12:04:27.564Z,345
2016-09-05T12:05:27.599Z,345
2016-09-05T12:06:27.645Z,345
2016-09-05T12:07:27.561Z,345
2016-09-05T12:08:27.677Z,350
2016-09-05T12:09:27.594Z,365
2016-09-05T12:10:27.579Z,375
2016-09-05T12:11:27.572Z,375
2016-09-05T12:12:27.669Z,365
2016-09-05T12:13:27.579Z,360
2016-09-05T12:14:27.475Z,335
2016-09-05T12:15:27.685Z,330
2016-09-05T12:16:27.550Z,325
2016-09-05T12:17:27.567Z,325
2016-09-05T12:18:27.581Z,305
2016-09-05T12:19:27.672Z,290
2016-09-05T12:20:27.674Z,275
2016-09-05T12:21:27.520Z,220
2016-09-05T12:22:27.548Z,165
2016-09-05T12:23:27.671Z,125
2016-09-05T12:24:27.546Z,115
2016-09-05T12:25:27.616Z,120
2016-09-05T12:26:27.552Z,130
2016-09-05T12:27:27.596Z,140
2016-09-05T12:28:27.642Z,145
2016-09-05T12:29:27.544Z,155
2016-09-05T12:30:27.598Z,165
2016-09-05T12:31:27.550Z,170
2016-09-05T12:32:27.533Z,180
2016-09-05T12:33:27.491Z,190
2016-09-05T12:34:27.381Z,195
2016-09-05T12:35:27.451Z,195
2016-09-05T12:36:27.594Z,190
2016-09-05T12:37:27.449Z,175
2016-09-05T12:38:27.650Z,160
2016-09-05T12:39:28.039Z,155
2016-09-05T12:40:27.608Z,155
2016-09-05T12:41:27.523Z,155
2016-09-05T12:42:27.610Z,150
2016-09-05T12:43:27.697Z,145
2016-09-05T12:44:27.455Z,140
2016-09-05T12:45:27.517Z,140
2016-09-05T12:46:27.460Z,140
2016-09-05T12:47:27.690Z,145
2016-09-05T12:48:27.414Z,155
2016-09-05T12:49:27.413Z,155
2016-09-05T12:50:27.494Z,155
2016-09-05T12:51:27.460Z,160
2016-09-05T12:52:27.465Z,165
2016-09-05T12:53:27.401Z,170
2016-09-05T12:54:27.431Z,170
2016-09-05T12:55:27.527Z,175
2016-09-05T12:56:27.517Z,190
2016-09-05T12:57:27.493Z,210
2016-09-05T12:58:27.485Z,230
2016-09-05T12:59:27.552Z,255
2016-09-05T13:00:27.568Z,280
2016-09-05T13:01:27.528Z,290
2016-09-05T13:02:27.669Z,300
2016-09-05T13:03:27.612Z,295
2016-09-05T13:04:27.507Z,290
2016-09-05T13:05:27.490Z,280
2016-09-05T13:06:27.613Z,285
2016-09-05T13:07:27.649Z,280
2016-09-05T13:08:27.550Z,265
2016-09-05T13:09:27.527Z,270
2016-09-05T13:10:27.750Z,265
2016-09-05T13:11:27.575Z,260
2016-09-05T13:12:27.591Z,255
2016-09-05T13:13:27.472Z,250
2016-09-05T13:14:27.517Z,240
2016-09-05T13:15:27.537Z,250
2016-09-05T13:16:27.454Z,260
2016-09-05T13:17:27.651Z,250
2016-09-05T13:18:27.606Z,260
2016-09-05T13:19:27.563Z,265
2016-09-05T13:20:27.618Z,265
2016-09-05T13:21:27.496Z,270
2016-09-05T13:22:27.457Z,265
2016-09-05T13:23:27.524Z,265
2016-09-05T13:24:27.571Z,250
2016-09-05T13:25:27.569Z,240
2016-09-05T13:26:27.489Z,220
2016-09-05T13:27:30.305Z,205
2016-09-05T13:28:27.691Z,200
2016-09-05T13:29:27.889Z,195
2016-09-05T13:30:27.684Z,200
2016-09-05T13:31:27.490Z,195
2016-09-05T13:32:27.517Z,200
2016-09-05T13:33:27.478Z,205
2016-09-05T13:34:27.436Z,185
2016-09-05T13:35:27.551Z,165
2016-09-05T13:36:27.502Z,145
2016-09-05T13:37:27.442Z,125
2016-09-05T13:38:27.554Z,115
2016-09-05T13:39:27.629Z,105
2016-09-05T13:40:27.522Z,95
2016-09-05T13:41:27.602Z,85
2016-09-05T13:42:27.477Z,75
2016-09-05T13:43:27.529Z,70
2016-09-05T13:44:27.545Z,70
2016-09-05T13:45:27.645Z,70
2016-09-05T13:46:27.527Z,70
2016-09-05T13:47:27.615Z,70
2016-09-05T13:48:27.668Z,75
2016-09-05T13:49:27.686Z,80
2016-09-05T13:50:27.637Z,90
2016-09-05T13:51:27.494Z,95
2016-09-05T13:52:27.688Z,105
2016-09-05T13:53:27.703Z,115
2016-09-05T13:54:27.576Z,125
2016-09-05T13:55:27.494Z,145
2016-09-05T13:56:27.584Z,160
2016-09-05T13:57:27.558Z,175
2016-09-05T13:58:27.873Z,185
2016-09-05T13:59:27.525Z,200
2016-09-05T14:00:27.781Z,225
2016-09-05T14:01:27.737Z,230
2016-09-05T14:02:27.773Z,240
2016-09-05T14:03:27.589Z,245
2016-09-05T14:04:27.597Z,265
2016-09-05T14:05:27.556Z,270
2016-09-05T14:06:27.544Z,270
2016-09-05T14:07:27.482Z,270
2016-09-05T14:08:27.518Z,270
2016-09-05T14:09:27.560Z,260
2016-09-05T14:10:27.948Z,255
2016-09-05T14:11:28.244Z,245
2016-09-05T14:12:27.575Z,245
2016-09-05T14:13:29.745Z,235